createdAt,value
2022-08-25T00:01:40.633Z,13.27
2022-08-25T00:04:12.828Z,18.08
2022-08-25T00:06:41.986Z,11.80
2022-08-25T00:09:11.705Z,13.30
2022-08-25T00:11:40.106Z,15.45
2022-08-25T00:14:12.778Z,15.07
2022-08-25T00:16:40.397Z,13.52
2022-08-25T00:19:10.544Z,13.55
2022-08-25T00:21:38.112Z,13.18
2022-08-25T00:24:14.716Z,14.10
2022-08-25T00:26:46.357Z,13.77
2022-08-25T00:29:16.367Z,12.80
2022-08-25T00:31:43.920Z,15.02
2022-08-25T00:34:20.086Z,14.05
2022-08-25T00:36:50.857Z,14.45
2022-08-25T00:39:21.637Z,24.98
2022-08-25T00:41:59.778Z,16.65
2022-08-25T00:44:28.863Z,14.93
2022-08-25T00:46:57.471Z,17.83
2022-08-25T00:49:43.694Z,16.00
2022-08-25T00:52:15.921Z,13.65
2022-08-25T00:55:08.017Z,17.95
2022-08-25T00:57:41.270Z,16.38
2022-08-25T01:00:11.448Z,14.83
2022-08-25T01:02:39.480Z,15.45
2022-08-25T01:05:07.564Z,17.30
2022-08-25T01:07:36.703Z,15.95
2022-08-25T01:10:04.784Z,16.83
2022-08-25T01:12:32.062Z,18.70
2022-08-25T01:14:59.480Z,15.15
2022-08-25T01:17:28.574Z,15.60
2022-08-25T01:19:55.999Z,14.88
2022-08-25T01:22:26.808Z,16.88
2022-08-25T01:24:54.241Z,17.33
2022-08-25T01:27:21.494Z,15.13
2022-08-25T01:29:51.305Z,15.05
2022-08-25T01:32:18.658Z,15.52
2022-08-25T01:34:46.811Z,15.85
2022-08-25T01:37:15.805Z,16.73
2022-08-25T01:39:46.236Z,14.50
2022-08-25T01:42:13.632Z,16.10
2022-08-25T01:44:42.732Z,17.05
2022-08-25T01:47:14.775Z,14.88
2022-08-25T01:49:42.332Z,19.50
2022-08-25T01:52:26.563Z,18.20
2022-08-25T01:55:02.223Z,18.52
2022-08-25T01:57:32.592Z,16.10
2022-08-25T02:00:02.759Z,17.50
2022-08-25T02:02:33.022Z,16.50
2022-08-25T02:05:00.520Z,17.98
2022-08-25T02:07:28.085Z,15.50
2022-08-25T02:09:55.379Z,16.30
2022-08-25T02:12:26.020Z,17.23
2022-08-25T02:14:53.380Z,18.40
2022-08-25T02:17:29.052Z,18.65
2022-08-25T02:19:57.597Z,17.85
2022-08-25T02:22:25.791Z,20.63
2022-08-25T02:24:55.551Z,18.38
2022-08-25T02:27:25.409Z,21.17
2022-08-25T02:29:52.890Z,16.85
2022-08-25T02:32:24.985Z,16.75
2022-08-25T02:34:54.680Z,19.00
2022-08-25T02:37:27.983Z,17.55
2022-08-25T02:40:11.259Z,18.88
2022-08-25T02:42:38.805Z,20.83
2022-08-25T02:45:10.637Z,18.38
2022-08-25T02:47:38.002Z,17.67
2022-08-25T02:50:05.962Z,19.42
2022-08-25T02:52:33.402Z,18.52
2022-08-25T02:55:02.930Z,20.33
2022-08-25T02:57:30.365Z,17.55
2022-08-25T03:00:24.645Z,25.20
2022-08-25T03:02:52.096Z,21.90
2022-08-25T03:05:19.404Z,20.45
2022-08-25T03:07:46.703Z,17.92
2022-08-25T03:12:58.330Z,19.88
2022-08-25T03:15:27.892Z,18.58
2022-08-25T03:18:02.589Z,17.83
2022-08-25T03:20:30.998Z,21.58
2022-08-25T03:23:00.666Z,21.27
2022-08-25T03:25:46.797Z,18.85
2022-08-25T03:28:14.726Z,22.35
2022-08-25T03:30:42.647Z,21.17
2022-08-25T03:33:15.226Z,21.70
2022-08-25T03:35:46.010Z,21.77
2022-08-25T03:38:18.122Z,19.80
2022-08-25T03:40:48.835Z,18.85
2022-08-25T03:43:18.870Z,18.88
2022-08-25T03:45:53.298Z,23.08
2022-08-25T03:48:23.025Z,25.60
2022-08-25T03:50:51.931Z,25.80
2022-08-25T03:53:20.028Z,17.55
2022-08-25T03:55:47.447Z,21.98
2022-08-25T03:58:15.038Z,23.40
2022-08-25T04:00:42.535Z,19.45
2022-08-25T04:03:09.829Z,18.88
2022-08-25T04:05:37.214Z,18.58
2022-08-25T04:08:05.257Z,19.00
2022-08-25T04:10:32.730Z,18.70
2022-08-25T04:13:01.312Z,20.38
2022-08-25T04:15:30.294Z,20.38
2022-08-25T04:17:59.320Z,19.70
2022-08-25T04:20:29.334Z,18.83
2022-08-25T04:23:00.674Z,19.48
2022-08-25T04:25:28.006Z,21.98
2022-08-25T04:27:56.780Z,21.38
2022-08-25T04:30:24.099Z,19.55
2022-08-25T04:32:51.684Z,22.20
2022-08-25T04:35:33.470Z,25.15
2022-08-25T04:38:01.480Z,22.15
2022-08-25T04:40:30.115Z,20.48
2022-08-25T04:43:00.177Z,19.35
2022-08-25T04:45:27.619Z,20.52
2022-08-25T04:48:01.341Z,23.05
2022-08-25T04:50:28.822Z,21.33
2022-08-25T04:52:56.319Z,22.05
2022-08-25T04:55:24.088Z,30.27
2022-08-25T04:57:51.337Z,31.70
2022-08-25T05:00:21.686Z,36.13
2022-08-25T05:02:49.662Z,48.70
2022-08-25T05:05:17.638Z,52.70
2022-08-25T05:07:45.487Z,27.60
2022-08-25T05:10:12.968Z,19.30
2022-08-25T05:12:40.156Z,16.33
2022-08-25T05:15:28.525Z,17.67
2022-08-25T05:17:56.166Z,16.02
2022-08-25T05:20:24.476Z,24.52
2022-08-25T05:22:51.867Z,16.25
2022-08-25T05:25:19.328Z,20.13
2022-08-25T05:27:46.528Z,17.73
2022-08-25T05:30:17.663Z,11.30
2022-08-25T05:32:45.948Z,9.80
2022-08-25T05:35:13.108Z,9.35
2022-08-25T05:37:40.325Z,17.80
2022-08-25T05:40:08.771Z,10.10
2022-08-25T05:42:37.781Z,9.68
2022-08-25T05:45:06.620Z,11.57
2022-08-25T05:47:34.790Z,10.25
2022-08-25T05:50:01.983Z,8.73
2022-08-25T05:52:29.875Z,8.50
2022-08-25T05:54:59.158Z,7.65
2022-08-25T05:57:26.938Z,10.27
2022-08-25T05:59:54.255Z,19.73
2022-08-25T06:02:40.258Z,12.80
2022-08-25T06:05:10.855Z,9.75
2022-08-25T06:07:38.228Z,17.05
2022-08-25T06:10:07.454Z,26.42
2022-08-25T06:12:36.639Z,34.30
2022-08-25T06:15:05.126Z,39.67
2022-08-25T06:17:35.745Z,29.95
2022-08-25T06:20:06.104Z,34.75
2022-08-25T06:22:34.309Z,40.58
2022-08-25T06:25:01.465Z,35.45
2022-08-25T06:27:32.677Z,47.63
2022-08-25T06:30:07.611Z,38.08
2022-08-25T06:32:36.618Z,59.20
2022-08-25T06:35:08.812Z,42.95
2022-08-25T06:37:36.915Z,27.00
2022-08-25T06:40:04.613Z,28.00
2022-08-25T06:42:33.583Z,35.50
2022-08-25T06:45:01.848Z,37.53
2022-08-25T06:47:29.251Z,33.60
2022-08-25T06:49:57.026Z,35.08
2022-08-25T06:52:29.263Z,35.78
2022-08-25T06:54:56.997Z,49.72
2022-08-25T06:57:24.204Z,35.28
2022-08-25T06:59:53.410Z,31.45
2022-08-25T07:02:23.201Z,26.48
2022-08-25T07:04:53.974Z,26.08
2022-08-25T07:07:21.931Z,27.63
2022-08-25T07:09:50.691Z,29.08
2022-08-25T07:12:17.872Z,20.30
2022-08-25T07:14:53.403Z,16.05
2022-08-25T07:17:36.045Z,19.02
2022-08-25T07:20:03.504Z,23.80
2022-08-25T07:22:37.849Z,13.57
2022-08-25T07:25:28.220Z,12.15
2022-08-25T07:27:58.883Z,11.38
2022-08-25T07:30:28.496Z,11.90
2022-08-25T07:33:00.037Z,18.73
2022-08-25T07:35:37.655Z,18.80
2022-08-25T07:38:16.654Z,12.52
2022-08-25T07:40:57.012Z,12.45
2022-08-25T07:43:27.136Z,14.35
2022-08-25T07:45:57.602Z,9.15
2022-08-25T07:48:28.882Z,12.95
2022-08-25T07:51:01.746Z,10.50
2022-08-25T07:53:33.112Z,12.20
2022-08-25T07:56:00.771Z,11.45
2022-08-25T07:58:28.520Z,10.93
2022-08-25T08:00:56.233Z,16.63
2022-08-25T08:03:44.730Z,13.20
2022-08-25T08:06:12.577Z,10.85
2022-08-25T08:08:52.542Z,15.25
2022-08-25T08:11:26.695Z,10.05
2022-08-25T08:13:58.457Z,9.68
2022-08-25T08:16:26.859Z,14.95
2022-08-25T08:18:57.834Z,9.43
2022-08-25T08:21:43.571Z,10.35
2022-08-25T08:24:31.201Z,7.85
2022-08-25T08:26:59.803Z,11.00
2022-08-25T08:29:29.609Z,9.75
2022-08-25T08:32:31.484Z,11.48
2022-08-25T08:35:09.352Z,8.52
2022-08-25T08:37:42.256Z,12.05
2022-08-25T08:40:13.921Z,11.10
2022-08-25T08:42:58.425Z,9.57
2022-08-25T08:45:40.491Z,7.68
2022-08-25T08:48:24.172Z,7.40
2022-08-25T08:51:09.828Z,5.85
2022-08-25T08:53:57.233Z,11.85
2022-08-25T08:56:30.947Z,7.15
2022-08-25T08:59:09.047Z,7.53
2022-08-25T09:01:52.541Z,5.00
2022-08-25T09:04:26.829Z,8.02
2022-08-25T09:06:57.522Z,6.18
2022-08-25T09:09:30.401Z,9.40
2022-08-25T09:12:06.305Z,11.55
2022-08-25T09:14:45.761Z,12.45
2022-08-25T09:17:35.287Z,11.20
2022-08-25T09:20:30.474Z,6.80
2022-08-25T09:23:11.370Z,14.52
2022-08-25T09:25:54.014Z,8.27
2022-08-25T09:28:24.550Z,11.00
2022-08-25T09:30:58.495Z,20.58
2022-08-25T09:33:27.826Z,9.63
2022-08-25T09:35:57.483Z,10.52
2022-08-25T09:38:26.252Z,12.60
2022-08-25T09:40:57.652Z,9.77
2022-08-25T09:43:28.251Z,11.40
2022-08-25T09:46:16.143Z,10.35
2022-08-25T09:48:46.511Z,9.13
2022-08-25T09:51:38.119Z,9.23
2022-08-25T09:54:16.406Z,7.70
2022-08-25T09:56:51.301Z,7.65
2022-08-25T09:59:20.173Z,7.13
2022-08-25T10:01:55.326Z,13.10
2022-08-25T10:04:33.427Z,10.45
2022-08-25T10:07:03.120Z,5.78
2022-08-25T10:09:34.742Z,10.77
2022-08-25T10:12:05.005Z,8.43
2022-08-25T10:14:38.287Z,8.02
2022-08-25T10:17:30.022Z,14.82
2022-08-25T10:20:12.888Z,10.20
2022-08-25T10:22:41.183Z,7.60
2022-08-25T10:25:10.438Z,10.80
2022-08-25T10:27:40.785Z,8.27
2022-08-25T10:30:08.225Z,8.73
2022-08-25T10:32:54.560Z,10.98
2022-08-25T10:35:42.645Z,9.65
2022-08-25T10:38:31.190Z,11.48
2022-08-25T10:41:17.009Z,11.85
2022-08-25T10:43:48.532Z,12.65
2022-08-25T10:46:40.249Z,9.70
2022-08-25T10:49:24.665Z,11.30
2022-08-25T10:51:51.916Z,7.68
2022-08-25T10:54:32.735Z,8.10
2022-08-25T10:57:09.252Z,9.13
2022-08-25T10:59:54.956Z,17.02
2022-08-25T11:02:38.835Z,10.77
2022-08-25T11:05:37.053Z,10.85
2022-08-25T11:08:22.926Z,14.95
2022-08-25T11:10:53.573Z,7.07
2022-08-25T11:16:17.451Z,7.78
2022-08-25T11:18:52.452Z,7.00
2022-08-25T11:21:23.217Z,6.22
2022-08-25T11:23:54.721Z,10.27
2022-08-25T11:26:33.817Z,7.57
2022-08-25T11:29:12.755Z,14.15
2022-08-25T11:31:53.622Z,8.90
2022-08-25T11:34:22.354Z,17.05
2022-08-25T11:37:11.226Z,5.75
2022-08-25T11:39:57.912Z,5.53
2022-08-25T11:42:25.793Z,5.70
2022-08-25T11:45:07.799Z,8.80
2022-08-25T11:47:38.576Z,6.38
2022-08-25T11:50:29.936Z,6.82
2022-08-25T11:53:00.454Z,9.32
2022-08-25T11:56:05.718Z,8.88
2022-08-25T11:58:41.564Z,6.55
2022-08-25T12:01:32.679Z,10.85
2022-08-25T12:04:19.201Z,8.00
2022-08-25T12:07:17.618Z,14.20
2022-08-25T12:09:54.500Z,8.43
2022-08-25T12:12:30.649Z,10.80
2022-08-25T12:15:14.068Z,12.07
2022-08-25T12:17:41.388Z,7.55
2022-08-25T12:20:09.340Z,7.45
2022-08-25T12:22:36.615Z,5.70
2022-08-25T12:25:28.597Z,7.95
2022-08-25T12:28:09.269Z,11.95
2022-08-25T12:30:43.923Z,8.30
2022-08-25T12:33:11.340Z,8.75
2022-08-25T12:35:41.964Z,7.57
2022-08-25T12:38:09.195Z,6.28
2022-08-25T12:40:36.595Z,6.68
2022-08-25T12:43:05.789Z,11.98
2022-08-25T12:45:39.748Z,9.73
2022-08-25T12:48:25.850Z,5.03
2022-08-25T12:51:16.342Z,6.32
2022-08-25T12:53:46.638Z,6.10
2022-08-25T12:56:23.149Z,7.82
2022-08-25T12:59:04.171Z,6.47
2022-08-25T13:01:43.343Z,9.30
2022-08-25T13:04:10.547Z,8.50
2022-08-25T13:07:02.995Z,5.72
2022-08-25T13:09:58.876Z,6.10
2022-08-25T13:12:41.527Z,7.30
2022-08-25T13:15:12.159Z,6.65
2022-08-25T13:17:39.650Z,6.20
2022-08-25T13:20:17.151Z,6.55
2022-08-25T13:22:55.147Z,6.47
2022-08-25T13:25:31.982Z,5.60
2022-08-25T13:28:01.467Z,4.97
2022-08-25T13:30:30.204Z,6.38
2022-08-25T13:32:57.689Z,8.32
2022-08-25T13:35:32.440Z,7.32
2022-08-25T13:38:16.666Z,6.45
2022-08-25T13:40:44.574Z,8.25
2022-08-25T13:43:13.897Z,7.50
2022-08-25T13:45:45.673Z,5.72
2022-08-25T13:48:22.694Z,5.30
2022-08-25T13:50:52.630Z,4.95
2022-08-25T13:53:30.705Z,8.10
2022-08-25T13:56:00.556Z,6.53
2022-08-25T13:58:39.401Z,4.78
2022-08-25T14:01:22.776Z,6.40
2022-08-25T14:04:21.847Z,6.93
2022-08-25T14:06:49.890Z,8.05
2022-08-25T14:09:27.957Z,5.22
2022-08-25T14:11:58.740Z,5.50
2022-08-25T14:14:25.902Z,6.80
2022-08-25T14:16:54.219Z,7.55
2022-08-25T14:19:25.146Z,5.72
2022-08-25T14:21:56.616Z,8.45
2022-08-25T14:24:24.459Z,7.38
2022-08-25T14:26:54.414Z,6.07
2022-08-25T14:29:22.383Z,8.98
2022-08-25T14:31:50.225Z,8.18
2022-08-25T14:34:20.178Z,9.82
2022-08-25T14:36:48.445Z,6.45
2022-08-25T14:39:15.801Z,10.10
2022-08-25T14:41:46.314Z,5.38
2022-08-25T14:44:20.611Z,5.80
2022-08-25T14:46:52.638Z,7.18
2022-08-25T14:49:24.988Z,5.90
2022-08-25T14:51:52.669Z,6.05
2022-08-25T14:54:23.172Z,6.00
2022-08-25T14:56:50.754Z,8.95
2022-08-25T14:59:18.601Z,6.15
2022-08-25T15:01:46.320Z,7.78
2022-08-25T15:04:18.989Z,10.35
2022-08-25T15:06:46.871Z,7.22
2022-08-25T15:09:16.481Z,6.40
2022-08-25T15:11:46.953Z,8.93
2022-08-25T15:14:15.769Z,7.88
2022-08-25T15:16:45.867Z,7.28
2022-08-25T15:19:17.264Z,8.77
2022-08-25T15:21:45.892Z,10.07
2022-08-25T15:24:17.454Z,11.15
2022-08-25T15:29:23.699Z,11.48
2022-08-25T15:31:51.359Z,12.13
2022-08-25T15:34:18.620Z,8.95
2022-08-25T15:36:46.760Z,11.88
2022-08-25T15:39:15.039Z,9.07
2022-08-25T15:41:49.452Z,11.18
2022-08-25T15:44:17.429Z,10.38
2022-08-25T15:46:47.083Z,10.85
2022-08-25T15:49:23.078Z,7.65
2022-08-25T15:51:50.665Z,8.43
2022-08-25T15:54:18.831Z,8.50
2022-08-25T15:56:46.050Z,10.18
2022-08-25T15:59:13.910Z,10.77
2022-08-25T16:01:41.993Z,7.13
2022-08-25T16:04:09.515Z,11.60
2022-08-25T16:06:37.543Z,10.23
2022-08-25T16:09:05.454Z,14.63
2022-08-25T16:11:33.708Z,8.15
2022-08-25T16:14:02.638Z,9.85
2022-08-25T16:16:30.942Z,10.68
2022-08-25T16:18:59.702Z,12.52
2022-08-25T16:21:29.140Z,12.95
2022-08-25T16:23:59.424Z,10.85
2022-08-25T16:26:30.204Z,12.57
2022-08-25T16:28:57.441Z,9.85
2022-08-25T16:31:24.829Z,12.02
2022-08-25T16:33:56.067Z,14.77
2022-08-25T16:38:55.054Z,9.77
2022-08-25T16:41:24.931Z,12.00
2022-08-25T16:43:52.487Z,11.45
2022-08-25T16:46:21.075Z,12.05
2022-08-25T16:48:48.733Z,11.85
2022-08-25T16:51:17.031Z,17.35
2022-08-25T16:54:05.644Z,11.13
2022-08-25T16:56:35.164Z,12.18
2022-08-25T16:59:04.930Z,10.98
2022-08-25T17:01:36.496Z,16.88
2022-08-25T17:04:05.225Z,12.35
2022-08-25T17:06:34.998Z,11.82
2022-08-25T17:09:02.303Z,12.52
2022-08-25T17:11:31.707Z,11.50
2022-08-25T17:14:00.758Z,19.02
2022-08-25T17:16:30.098Z,13.88
2022-08-25T17:18:59.517Z,18.08
2022-08-25T17:21:31.216Z,16.48
2022-08-25T17:23:58.377Z,16.88
2022-08-25T17:26:27.598Z,13.60
2022-08-25T17:28:56.051Z,14.25
2022-08-25T17:31:24.197Z,18.52
2022-08-25T17:33:52.293Z,18.52
2022-08-25T17:36:19.912Z,15.07
2022-08-25T17:38:54.541Z,15.20
2022-08-25T17:41:21.898Z,16.70
2022-08-25T17:43:48.998Z,14.05
2022-08-25T17:46:16.151Z,18.52
2022-08-25T17:48:44.729Z,14.82
2022-08-25T17:51:12.977Z,17.33
2022-08-25T17:53:43.663Z,14.25
2022-08-25T17:56:13.963Z,16.08
2022-08-25T17:58:41.527Z,19.17
2022-08-25T18:01:15.108Z,13.73
2022-08-25T18:06:11.795Z,12.43
2022-08-25T18:08:43.450Z,19.35
2022-08-25T18:11:10.559Z,17.08
2022-08-25T18:13:38.632Z,20.70
2022-08-25T18:16:07.573Z,15.13
2022-08-25T18:18:35.764Z,16.00
2022-08-25T18:21:02.903Z,16.15
2022-08-25T18:23:30.208Z,14.02
2022-08-25T18:26:01.065Z,15.10
2022-08-25T18:28:28.754Z,22.83
2022-08-25T18:30:56.278Z,11.93
2022-08-25T18:33:23.594Z,16.63
2022-08-25T18:35:50.699Z,30.50
2022-08-25T18:38:37.466Z,24.70
2022-08-25T18:41:05.890Z,23.60
2022-08-25T18:43:34.535Z,14.77
2022-08-25T18:46:04.139Z,20.50
2022-08-25T18:48:32.048Z,18.08
2022-08-25T18:51:00.903Z,15.45
2022-08-25T18:53:30.666Z,20.02
2022-08-25T18:56:04.919Z,17.02
2022-08-25T18:58:32.063Z,19.40
2022-08-25T19:01:00.838Z,16.10
2022-08-25T19:03:28.211Z,21.65
2022-08-25T19:05:57.686Z,16.75
2022-08-25T19:08:25.465Z,20.80
2022-08-25T19:10:54.195Z,23.27
2022-08-25T19:13:22.560Z,21.42
2022-08-25T19:15:50.164Z,24.27
2022-08-25T19:18:19.121Z,18.67
2022-08-25T19:20:53.512Z,19.88
2022-08-25T19:23:20.591Z,17.77
2022-08-25T19:25:48.118Z,17.52
2022-08-25T19:28:15.258Z,17.70
2022-08-25T19:30:50.255Z,16.48
2022-08-25T19:33:42.607Z,18.05
2022-08-25T19:36:06.337Z,16.77
2022-08-25T19:38:35.951Z,18.50
2022-08-25T19:41:10.701Z,21.48
2022-08-25T19:43:55.000Z,15.18
2022-08-25T19:46:23.250Z,28.15
2022-08-25T19:48:50.647Z,16.45
2022-08-25T19:51:19.359Z,23.83
2022-08-25T19:53:54.346Z,17.60
2022-08-25T19:56:22.872Z,20.33
2022-08-25T19:58:50.165Z,22.95
2022-08-25T20:01:18.152Z,22.63
2022-08-25T20:03:45.473Z,27.67
2022-08-25T20:06:16.072Z,22.00
2022-08-25T20:08:43.442Z,17.05
2022-08-25T20:11:10.848Z,23.13
2022-08-25T20:13:38.031Z,20.77
2022-08-25T20:16:05.531Z,19.20
2022-08-25T20:18:32.973Z,20.50
2022-08-25T20:21:00.965Z,22.45
2022-08-25T20:23:46.742Z,21.90
2022-08-25T20:26:13.837Z,20.33
2022-08-25T20:28:42.204Z,22.48
2022-08-25T20:31:09.524Z,22.13
2022-08-25T20:33:36.848Z,21.75
2022-08-25T20:36:04.864Z,23.83
2022-08-25T20:38:32.181Z,19.60
2022-08-25T20:41:01.280Z,21.38
2022-08-25T20:43:30.059Z,22.05
2022-08-25T20:46:01.136Z,22.50
2022-08-25T20:48:28.259Z,17.73
2022-08-25T20:50:57.817Z,18.45
2022-08-25T20:53:25.494Z,20.25
2022-08-25T20:55:52.629Z,19.15
2022-08-25T20:58:20.799Z,22.73
2022-08-25T21:00:48.166Z,25.10
2022-08-25T21:03:15.233Z,21.08
2022-08-25T21:05:43.474Z,22.90
2022-08-25T21:08:11.051Z,22.95
2022-08-25T21:10:38.139Z,25.95
2022-08-25T21:13:06.435Z,21.52
2022-08-25T21:15:33.528Z,14.00
2022-08-25T21:18:01.005Z,23.48
2022-08-25T21:20:28.165Z,22.48
2022-08-25T21:22:55.365Z,19.55
2022-08-25T21:25:23.870Z,19.63
2022-08-25T21:27:50.967Z,20.70
2022-08-25T21:30:18.119Z,18.95
2022-08-25T21:32:53.011Z,22.77
2022-08-25T21:35:21.148Z,14.82
2022-08-25T21:37:53.582Z,26.23
2022-08-25T21:40:21.103Z,20.80
2022-08-25T21:42:49.054Z,19.35
2022-08-25T21:45:16.231Z,17.02
2022-08-25T21:47:43.746Z,23.40
2022-08-25T21:50:11.551Z,20.88
2022-08-25T21:52:38.841Z,26.02
2022-08-25T21:55:15.734Z,21.92
2022-08-25T21:57:43.820Z,20.98
2022-08-25T22:00:13.107Z,25.75
2022-08-25T22:02:40.271Z,20.98
2022-08-25T22:05:11.437Z,24.33
2022-08-25T22:07:43.928Z,19.05
2022-08-25T22:10:16.553Z,21.87
2022-08-25T22:12:44.750Z,16.50
2022-08-25T22:15:12.487Z,19.92
2022-08-25T22:17:40.863Z,17.27
2022-08-25T22:20:08.260Z,16.85
2022-08-25T22:22:36.527Z,24.88
2022-08-25T22:25:03.905Z,24.27
2022-08-25T22:27:33.355Z,25.48
2022-08-25T22:30:01.066Z,25.88
2022-08-25T22:32:28.203Z,23.73
2022-08-25T22:34:55.309Z,17.73
2022-08-25T22:37:22.428Z,28.33
2022-08-25T22:39:49.806Z,24.17
2022-08-25T22:42:18.409Z,24.67
2022-08-25T22:44:45.554Z,24.90
2022-08-25T22:47:13.464Z,22.52
2022-08-25T22:49:41.256Z,22.65
2022-08-25T22:52:09.258Z,22.60
2022-08-25T22:54:38.758Z,25.92
2022-08-25T22:57:06.816Z,26.95
2022-08-25T22:59:34.164Z,20.27
2022-08-25T23:02:01.361Z,26.25
2022-08-25T23:04:28.542Z,27.30
2022-08-25T23:06:55.664Z,23.10
2022-08-25T23:09:24.921Z,23.23
2022-08-25T23:11:52.126Z,27.13
2022-08-25T23:14:19.361Z,24.25
2022-08-25T23:16:46.631Z,22.33
2022-08-25T23:19:14.895Z,28.33
2022-08-25T23:22:04.551Z,22.88
2022-08-25T23:24:32.138Z,23.48
2022-08-25T23:27:00.634Z,25.38
2022-08-25T23:29:28.026Z,24.65
2022-08-25T23:31:55.821Z,23.35
2022-08-25T23:34:23.150Z,22.90
2022-08-25T23:36:50.239Z,26.00
2022-08-25T23:39:17.360Z,27.67
2022-08-25T23:41:44.510Z,24.88
2022-08-25T23:44:17.444Z,23.80
2022-08-25T23:46:47.125Z,21.90
2022-08-25T23:49:15.145Z,27.20
2022-08-25T23:51:46.507Z,21.98
2022-08-25T23:54:14.749Z,23.80
2022-08-25T23:56:52.010Z,28.38
2022-08-25T23:59:20.208Z,22.25
